createdAt,value
2023-04-17T00:01:04.093Z,28.83
2023-04-17T00:03:34.607Z,33.83
2023-04-17T00:06:07.761Z,31.05
2023-04-17T00:08:37.892Z,31.15
2023-04-17T00:11:09.031Z,40.00
2023-04-17T00:13:39.492Z,35.97
2023-04-17T00:16:12.850Z,33.15
2023-04-17T00:18:43.767Z,33.35
2023-04-17T00:21:16.355Z,38.17
2023-04-17T00:23:46.342Z,31.50
2023-04-17T00:26:17.569Z,34.58
2023-04-17T00:28:47.665Z,32.63
2023-04-17T00:31:17.642Z,35.78
2023-04-17T00:33:48.730Z,34.42
2023-04-17T00:36:21.485Z,36.58
2023-04-17T00:38:51.553Z,36.55
2023-04-17T00:41:21.644Z,33.92
2023-04-17T00:43:51.776Z,34.63
2023-04-17T00:46:22.103Z,37.95
2023-04-17T00:48:52.499Z,37.95
2023-04-17T00:51:26.011Z,36.03
2023-04-17T00:53:56.418Z,33.15
2023-04-17T00:56:26.571Z,40.78
2023-04-17T00:58:58.652Z,38.85
2023-04-17T01:01:28.798Z,34.10
2023-04-17T01:04:00.247Z,34.50
2023-04-17T01:06:33.068Z,41.63
2023-04-17T01:09:03.286Z,36.45
2023-04-17T01:11:33.352Z,37.25
2023-04-17T01:14:03.513Z,36.05
2023-04-17T01:16:34.070Z,36.63
2023-04-17T01:19:04.352Z,38.70
2023-04-17T01:21:37.002Z,33.83
2023-04-17T01:24:10.978Z,38.03
2023-04-17T01:26:41.722Z,34.97
2023-04-17T01:29:11.930Z,39.72
2023-04-17T01:31:42.114Z,39.47
2023-04-17T01:34:12.181Z,37.28
2023-04-17T01:36:42.341Z,36.67
2023-04-17T01:39:14.932Z,37.90
2023-04-17T01:41:44.891Z,33.35
2023-04-17T01:44:14.911Z,32.95
2023-04-17T01:46:45.115Z,31.63
2023-04-17T01:49:16.028Z,39.03
2023-04-17T01:51:46.015Z,33.78
2023-04-17T01:54:18.630Z,32.63
2023-04-17T01:56:48.682Z,36.22
2023-04-17T01:59:18.718Z,37.53
2023-04-17T02:01:48.798Z,35.65
2023-04-17T02:04:18.983Z,34.38
2023-04-17T02:06:49.104Z,35.60
2023-04-17T02:09:22.115Z,37.03
2023-04-17T02:11:52.170Z,36.83
2023-04-17T02:14:22.251Z,32.17
2023-04-17T02:16:53.913Z,33.55
2023-04-17T02:19:24.256Z,35.58
2023-04-17T02:21:54.331Z,32.95
2023-04-17T02:24:26.947Z,38.45
2023-04-17T02:26:56.964Z,31.77
2023-04-17T02:29:27.014Z,32.25
2023-04-17T02:31:57.029Z,37.05
2023-04-17T02:34:27.417Z,33.17
2023-04-17T02:36:57.381Z,33.08
2023-04-17T02:39:31.349Z,33.10
2023-04-17T02:42:02.265Z,33.40
2023-04-17T02:44:32.479Z,35.58
2023-04-17T02:47:02.584Z,34.00
2023-04-17T02:49:32.850Z,33.88
2023-04-17T02:52:03.212Z,35.17
2023-04-17T02:54:35.898Z,33.90
2023-04-17T02:57:06.126Z,33.70
2023-04-17T02:59:36.327Z,30.90
2023-04-17T03:02:07.345Z,34.70
2023-04-17T03:04:38.951Z,36.10
2023-04-17T03:07:10.617Z,31.20
2023-04-17T03:09:45.724Z,30.33
2023-04-17T03:12:15.833Z,32.17
2023-04-17T03:14:46.780Z,33.13
2023-04-17T03:17:18.138Z,32.30
2023-04-17T03:19:48.246Z,33.72
2023-04-17T03:22:18.285Z,35.10
2023-04-17T03:24:50.928Z,29.27
2023-04-17T03:27:24.653Z,31.88
2023-04-17T03:29:54.858Z,32.35
2023-04-17T03:32:25.039Z,35.17
2023-04-17T03:34:55.071Z,37.05
2023-04-17T03:37:25.167Z,36.15
2023-04-17T03:39:57.918Z,37.17
2023-04-17T03:42:29.616Z,38.38
2023-04-17T03:44:59.716Z,33.17
2023-04-17T03:47:30.634Z,36.45
2023-04-17T03:50:00.858Z,38.28
2023-04-17T03:52:30.970Z,34.45
2023-04-17T03:55:03.711Z,31.52
2023-04-17T03:57:33.849Z,34.50
2023-04-17T04:00:05.197Z,33.83
2023-04-17T04:02:35.434Z,33.20
2023-04-17T04:05:05.717Z,38.65
2023-04-17T04:07:35.951Z,34.90
2023-04-17T04:10:10.687Z,38.55
2023-04-17T04:15:12.694Z,33.35
2023-04-17T04:17:42.890Z,36.25
2023-04-17T04:20:13.866Z,36.35
2023-04-17T04:22:44.981Z,37.30
2023-04-17T04:25:17.815Z,35.58
2023-04-17T04:27:50.061Z,36.78
2023-04-17T04:30:20.583Z,34.53
2023-04-17T04:32:51.598Z,35.47
2023-04-17T04:35:21.880Z,39.10
2023-04-17T04:37:54.949Z,33.97
2023-04-17T04:40:27.698Z,41.40
2023-04-17T04:42:58.722Z,43.08
2023-04-17T04:45:28.882Z,41.08
2023-04-17T04:47:58.978Z,36.70
2023-04-17T04:50:29.146Z,41.97
2023-04-17T04:52:59.185Z,38.92
2023-04-17T04:55:31.881Z,39.95
2023-04-17T04:58:01.902Z,42.03
2023-04-17T05:00:31.934Z,37.33
2023-04-17T05:03:02.711Z,40.63
2023-04-17T05:05:33.102Z,40.75
2023-04-17T05:08:03.195Z,42.45
2023-04-17T05:10:36.111Z,41.30
2023-04-17T05:13:06.155Z,48.13
2023-04-17T05:15:36.229Z,50.42
2023-04-17T05:18:06.674Z,46.83
2023-04-17T05:20:37.913Z,47.55
2023-04-17T05:23:08.145Z,52.92
2023-04-17T05:25:40.991Z,60.33
2023-04-17T05:28:11.290Z,57.92
2023-04-17T05:30:41.435Z,63.08
2023-04-17T05:33:11.754Z,63.20
2023-04-17T05:35:41.913Z,71.15
2023-04-17T05:38:12.029Z,72.43
2023-04-17T05:40:44.746Z,71.00
2023-04-17T05:43:15.595Z,73.38
2023-04-17T05:45:45.832Z,72.03
2023-04-17T05:48:15.995Z,83.28
2023-04-17T05:50:46.083Z,79.47
2023-04-17T05:53:16.192Z,82.85
2023-04-17T05:55:48.824Z,78.65
2023-04-17T06:00:51.942Z,73.85
2023-04-17T06:03:22.495Z,73.97
2023-04-17T06:05:52.849Z,74.50
2023-04-17T06:08:23.019Z,72.00
2023-04-17T06:10:56.340Z,77.43
2023-04-17T06:13:26.650Z,75.93
2023-04-17T06:15:56.791Z,70.25
2023-04-17T06:18:26.929Z,73.78
2023-04-17T06:20:57.080Z,75.30
2023-04-17T06:23:27.340Z,74.07
2023-04-17T06:26:00.048Z,73.10
2023-04-17T06:28:30.232Z,70.35
2023-04-17T06:31:00.607Z,77.45
2023-04-17T06:33:30.763Z,65.30
2023-04-17T06:36:01.387Z,72.32
2023-04-17T06:38:31.526Z,72.18
2023-04-17T06:41:04.214Z,79.47
2023-04-17T06:43:34.329Z,71.30
2023-04-17T06:46:04.517Z,67.00
2023-04-17T06:48:34.663Z,66.50
2023-04-17T06:51:04.735Z,70.93
2023-04-17T06:53:34.812Z,66.35
2023-04-17T06:56:08.494Z,61.75
2023-04-17T06:58:44.541Z,70.22
2023-04-17T07:01:15.635Z,68.30
2023-04-17T07:03:46.770Z,65.38
2023-04-17T07:06:17.321Z,66.18
2023-04-17T07:08:47.335Z,64.57
2023-04-17T07:11:22.899Z,64.47
2023-04-17T07:13:52.941Z,60.63
2023-04-17T07:16:23.180Z,64.32
2023-04-17T07:18:53.733Z,56.50
2023-04-17T07:21:23.790Z,56.00
2023-04-17T07:23:53.864Z,59.72
2023-04-17T07:26:26.835Z,55.47
2023-04-17T07:28:56.912Z,56.47
2023-04-17T07:31:28.639Z,61.78
2023-04-17T07:33:58.854Z,64.90
2023-04-17T07:36:30.169Z,60.08
2023-04-17T07:39:00.292Z,63.25
2023-04-17T07:41:32.967Z,64.78
2023-04-17T07:44:05.028Z,57.58
2023-04-17T07:46:35.511Z,55.78
2023-04-17T07:49:05.731Z,51.67
2023-04-17T07:51:35.878Z,59.03
2023-04-17T07:54:06.117Z,50.85
2023-04-17T07:56:38.883Z,55.58
2023-04-17T07:59:09.829Z,55.55
2023-04-17T08:01:41.265Z,52.22
2023-04-17T08:04:11.732Z,57.90
2023-04-17T08:06:42.118Z,52.42
2023-04-17T08:09:12.374Z,53.80
2023-04-17T08:11:56.386Z,52.08
2023-04-17T08:14:28.043Z,61.38
2023-04-17T08:16:58.421Z,53.95
2023-04-17T08:19:28.592Z,58.67
2023-04-17T08:22:07.486Z,57.38
2023-04-17T08:24:37.707Z,48.35
2023-04-17T08:27:10.431Z,52.20
2023-04-17T08:29:40.669Z,45.20
2023-04-17T08:32:14.793Z,55.42
2023-04-17T08:34:47.375Z,48.65
2023-04-17T08:37:17.500Z,45.47
2023-04-17T08:39:52.541Z,49.22
2023-04-17T08:42:25.994Z,54.25
2023-04-17T08:44:57.246Z,53.90
2023-04-17T08:47:28.185Z,49.22
2023-04-17T08:49:58.494Z,51.47
2023-04-17T08:52:28.536Z,49.88
2023-04-17T08:54:58.592Z,50.50
2023-04-17T08:57:31.311Z,52.80
2023-04-17T09:00:06.987Z,57.05
2023-04-17T09:02:56.091Z,50.25
2023-04-17T09:05:27.287Z,51.17
2023-04-17T09:08:13.085Z,44.10
2023-04-17T09:10:45.100Z,50.95
2023-04-17T09:13:19.962Z,54.50
2023-04-17T09:16:06.320Z,47.22
2023-04-17T09:18:37.805Z,52.33
2023-04-17T09:21:09.780Z,49.97
2023-04-17T09:23:51.665Z,50.13
2023-04-17T09:26:24.655Z,50.70
2023-04-17T09:29:12.110Z,53.47
2023-04-17T09:31:46.294Z,46.25
2023-04-17T09:34:17.939Z,50.73
2023-04-17T09:36:47.977Z,50.67
2023-04-17T09:39:24.571Z,57.97
2023-04-17T09:42:06.402Z,47.65
2023-04-17T09:44:40.494Z,48.50
2023-04-17T09:47:12.584Z,50.20
2023-04-17T09:49:45.040Z,47.72
2023-04-17T09:52:16.184Z,52.30
2023-04-17T09:54:47.791Z,46.65
2023-04-17T09:57:17.865Z,44.35
2023-04-17T09:59:51.111Z,46.40
2023-04-17T10:02:23.077Z,48.25
2023-04-17T10:04:53.274Z,40.20
2023-04-17T10:07:23.429Z,43.88
2023-04-17T10:09:53.466Z,45.95
2023-04-17T10:12:24.116Z,44.17
2023-04-17T10:14:56.926Z,42.25
2023-04-17T10:17:28.943Z,44.65
2023-04-17T10:20:00.860Z,45.95
2023-04-17T10:22:41.273Z,40.85
2023-04-17T10:25:22.625Z,44.33
2023-04-17T10:27:58.608Z,49.65
2023-04-17T10:30:55.618Z,43.28
2023-04-17T10:33:28.638Z,40.85
2023-04-17T10:35:58.872Z,44.88
2023-04-17T10:38:37.792Z,46.22
2023-04-17T10:41:12.136Z,49.63
2023-04-17T10:43:47.210Z,43.67
2023-04-17T10:46:19.905Z,42.70
2023-04-17T10:48:52.507Z,45.15
2023-04-17T10:51:44.847Z,47.80
2023-04-17T10:54:15.910Z,46.97
2023-04-17T10:56:49.487Z,50.42
2023-04-17T10:59:21.046Z,48.13
2023-04-17T11:02:07.938Z,51.30
2023-04-17T11:04:38.129Z,53.25
2023-04-17T11:07:08.333Z,56.35
2023-04-17T11:09:38.516Z,57.60
2023-04-17T11:12:09.365Z,51.42
2023-04-17T11:14:44.475Z,59.70
2023-04-17T11:17:17.439Z,60.25
2023-04-17T11:19:48.148Z,59.40
2023-04-17T11:22:19.937Z,57.38
2023-04-17T11:24:50.072Z,59.15
2023-04-17T11:27:20.415Z,60.47
2023-04-17T11:29:50.648Z,57.40
2023-04-17T11:32:23.309Z,59.60
2023-04-17T11:34:54.821Z,59.90
2023-04-17T11:37:24.879Z,58.67
2023-04-17T11:39:54.954Z,58.42
2023-04-17T11:42:29.846Z,58.65
2023-04-17T11:45:07.516Z,56.67
2023-04-17T11:47:40.185Z,57.20
2023-04-17T11:50:11.288Z,53.70
2023-04-17T11:52:41.366Z,58.47
2023-04-17T11:55:12.881Z,52.92
2023-04-17T11:57:46.065Z,54.53
2023-04-17T12:00:18.299Z,55.90
2023-04-17T12:02:52.119Z,49.78
2023-04-17T12:05:23.176Z,61.67
2023-04-17T12:08:06.301Z,56.08
2023-04-17T12:10:44.213Z,56.53
2023-04-17T12:13:15.283Z,62.80
2023-04-17T12:15:45.852Z,51.83
2023-04-17T12:18:18.654Z,61.28
2023-04-17T12:20:48.945Z,55.53
2023-04-17T12:23:19.099Z,61.15
2023-04-17T12:25:49.145Z,63.55
2023-04-17T12:28:19.338Z,60.22
2023-04-17T12:30:49.432Z,61.08
2023-04-17T12:33:22.122Z,62.92
2023-04-17T12:35:52.510Z,63.47
2023-04-17T12:38:23.388Z,66.57
2023-04-17T12:40:53.505Z,67.43
2023-04-17T12:43:23.690Z,62.35
2023-04-17T12:45:56.116Z,62.58
2023-04-17T12:48:30.760Z,70.13
2023-04-17T12:51:02.702Z,67.20
2023-04-17T12:53:32.945Z,67.88
2023-04-17T12:56:03.273Z,66.03
2023-04-17T12:58:33.623Z,70.32
2023-04-17T13:01:03.956Z,63.67
2023-04-17T13:03:37.150Z,68.90
2023-04-17T13:06:07.911Z,61.75
2023-04-17T13:08:38.038Z,59.15
2023-04-17T13:11:08.532Z,55.05
2023-04-17T13:13:38.587Z,51.63
2023-04-17T13:16:10.201Z,50.70
2023-04-17T13:18:42.847Z,52.70
2023-04-17T13:21:12.911Z,52.58
2023-04-17T13:23:43.004Z,53.92
2023-04-17T13:26:13.240Z,54.30
2023-04-17T13:28:43.381Z,53.80
2023-04-17T13:31:14.303Z,51.97
2023-04-17T13:33:47.109Z,55.10
2023-04-17T13:36:17.175Z,51.75
2023-04-17T13:38:47.224Z,50.88
2023-04-17T13:41:17.359Z,53.08
2023-04-17T13:43:47.537Z,50.90
2023-04-17T13:46:17.806Z,52.33
2023-04-17T13:48:51.467Z,48.25
2023-04-17T13:51:21.586Z,51.88
2023-04-17T13:53:51.737Z,50.22
2023-04-17T13:56:23.545Z,48.13
2023-04-17T13:58:54.018Z,45.92
2023-04-17T14:01:24.619Z,45.97
2023-04-17T14:04:00.646Z,47.42
2023-04-17T14:06:31.390Z,48.63
2023-04-17T14:09:01.681Z,54.88
2023-04-17T14:11:31.868Z,55.72
2023-04-17T14:14:01.964Z,55.42
2023-04-17T14:16:32.501Z,48.45
2023-04-17T14:19:13.195Z,57.70
2023-04-17T14:21:44.822Z,53.45
2023-04-17T14:24:14.945Z,51.63
2023-04-17T14:26:45.096Z,43.65
2023-04-17T14:29:15.690Z,51.35
2023-04-17T14:31:46.190Z,48.88
2023-04-17T14:34:19.008Z,48.42
2023-04-17T14:36:49.051Z,46.47
2023-04-17T14:39:19.921Z,50.97
2023-04-17T14:41:50.086Z,47.53
2023-04-17T14:44:20.226Z,51.40
2023-04-17T14:46:51.460Z,48.80
2023-04-17T14:49:24.212Z,49.10
2023-04-17T14:51:54.300Z,49.55
2023-04-17T14:54:24.426Z,53.50
2023-04-17T14:56:55.093Z,45.15
2023-04-17T14:59:25.209Z,44.78
2023-04-17T15:01:55.629Z,42.92
2023-04-17T15:04:28.619Z,43.67
2023-04-17T15:06:58.790Z,41.55
2023-04-17T15:09:29.409Z,43.83
2023-04-17T15:11:59.696Z,41.50
2023-04-17T15:14:30.123Z,39.28
2023-04-17T15:17:02.572Z,43.38
2023-04-17T15:19:36.708Z,47.03
2023-04-17T15:22:06.908Z,41.17
2023-04-17T15:24:37.248Z,37.75
2023-04-17T15:27:07.482Z,38.42
2023-04-17T15:29:37.658Z,37.70
2023-04-17T15:32:08.081Z,41.90
2023-04-17T15:34:42.729Z,35.25
2023-04-17T15:37:16.343Z,37.20
2023-04-17T15:39:47.012Z,40.90
2023-04-17T15:42:17.546Z,42.10
2023-04-17T15:44:47.759Z,39.75
2023-04-17T15:47:17.984Z,30.55
2023-04-17T15:49:51.161Z,30.88
2023-04-17T15:52:21.221Z,27.55
2023-04-17T15:54:51.318Z,24.80
2023-04-17T15:57:21.459Z,28.58
2023-04-17T15:59:51.625Z,27.38
2023-04-17T16:02:21.939Z,28.23
2023-04-17T16:04:54.827Z,27.27
2023-04-17T16:07:26.485Z,25.55
2023-04-17T16:09:56.519Z,26.25
2023-04-17T16:12:28.204Z,24.42
2023-04-17T16:14:58.433Z,28.77
2023-04-17T16:17:30.400Z,27.17
2023-04-17T16:20:06.163Z,27.02
2023-04-17T16:22:37.287Z,28.55
2023-04-17T16:25:13.830Z,26.73
2023-04-17T16:27:46.915Z,30.65
2023-04-17T16:30:17.543Z,31.33
2023-04-17T16:32:50.261Z,30.90
2023-04-17T16:35:23.173Z,32.85
2023-04-17T16:37:53.335Z,33.33
2023-04-17T16:40:23.622Z,30.08
2023-04-17T16:42:53.782Z,33.05
2023-04-17T16:45:24.410Z,35.25
2023-04-17T16:47:54.581Z,38.55
2023-04-17T16:50:27.286Z,36.70
2023-04-17T16:52:57.482Z,39.03
2023-04-17T16:55:27.846Z,36.45
2023-04-17T16:58:00.163Z,35.83
2023-04-17T17:00:30.270Z,32.55
2023-04-17T17:03:00.723Z,37.45
2023-04-17T17:05:33.472Z,36.78
2023-04-17T17:08:03.581Z,37.67
2023-04-17T17:10:33.792Z,38.30
2023-04-17T17:13:03.934Z,42.20
2023-04-17T17:15:34.335Z,38.90
2023-04-17T17:18:04.608Z,37.10
2023-04-17T17:20:37.475Z,39.00
2023-04-17T17:23:07.581Z,34.50
2023-04-17T17:25:37.696Z,39.92
2023-04-17T17:28:07.971Z,36.00
2023-04-17T17:30:38.085Z,35.85
2023-04-17T17:33:08.510Z,38.20
2023-04-17T17:35:41.262Z,36.70
2023-04-17T17:38:12.101Z,37.40
2023-04-17T17:40:42.453Z,34.00
2023-04-17T17:43:13.124Z,36.20
2023-04-17T17:45:43.314Z,35.58
2023-04-17T17:48:15.505Z,35.97
2023-04-17T17:50:48.728Z,38.67
2023-04-17T17:53:21.377Z,39.17
2023-04-17T17:55:56.377Z,33.67
2023-04-17T17:58:26.888Z,40.15
2023-04-17T18:00:56.996Z,39.38
2023-04-17T18:03:27.417Z,38.45
2023-04-17T18:06:00.335Z,39.40
2023-04-17T18:08:30.461Z,40.58
2023-04-17T18:11:00.692Z,40.88
2023-04-17T18:13:30.989Z,41.33
2023-04-17T18:16:01.618Z,39.72
2023-04-17T18:18:31.669Z,41.70
2023-04-17T18:21:09.499Z,39.75
2023-04-17T18:23:39.647Z,41.22
2023-04-17T18:26:09.716Z,38.13
2023-04-17T18:28:39.858Z,41.88
2023-04-17T18:31:10.018Z,39.92
2023-04-17T18:33:40.202Z,39.72
2023-04-17T18:36:13.085Z,40.08
2023-04-17T18:38:43.218Z,40.80
2023-04-17T18:41:13.536Z,38.95
2023-04-17T18:43:43.624Z,38.20
2023-04-17T18:46:13.738Z,40.75
2023-04-17T18:48:43.744Z,39.42
2023-04-17T18:51:17.695Z,41.38
2023-04-17T18:53:48.439Z,44.65
2023-04-17T18:56:19.072Z,46.20
2023-04-17T18:58:51.126Z,49.72
2023-04-17T19:01:21.342Z,45.58
2023-04-17T19:03:53.115Z,43.65
2023-04-17T19:06:26.527Z,41.38
2023-04-17T19:08:57.215Z,44.70
2023-04-17T19:11:28.180Z,43.63
2023-04-17T19:13:58.268Z,39.08
2023-04-17T19:16:28.406Z,45.67
2023-04-17T19:18:58.429Z,42.20
2023-04-17T19:21:32.849Z,46.55
2023-04-17T19:24:02.920Z,43.65
2023-04-17T19:26:32.956Z,42.30
2023-04-17T19:29:03.387Z,39.88
2023-04-17T19:31:34.206Z,43.55
2023-04-17T19:34:04.267Z,37.90
2023-04-17T19:36:36.971Z,41.88
2023-04-17T19:39:07.178Z,40.83
2023-04-17T19:41:37.206Z,45.38
2023-04-17T19:44:07.650Z,42.92
2023-04-17T19:46:37.716Z,41.55
2023-04-17T19:49:07.748Z,37.78
2023-04-17T19:51:40.959Z,34.95
2023-04-17T19:54:12.213Z,36.50
2023-04-17T19:56:42.428Z,35.75
2023-04-17T19:59:13.708Z,35.53
2023-04-17T20:01:44.644Z,37.58
2023-04-17T20:04:16.791Z,39.55
2023-04-17T20:06:49.608Z,40.08
2023-04-17T20:09:19.838Z,39.10
2023-04-17T20:11:50.286Z,39.40
2023-04-17T20:14:20.928Z,38.75
2023-04-17T20:16:51.463Z,41.75
2023-04-17T20:19:21.565Z,41.40
2023-04-17T20:21:54.196Z,34.50
2023-04-17T20:24:24.297Z,36.80
2023-04-17T20:26:54.420Z,36.67
2023-04-17T20:29:27.292Z,34.78
2023-04-17T20:31:57.380Z,39.22
2023-04-17T20:34:28.251Z,34.83
2023-04-17T20:37:00.814Z,36.97
2023-04-17T20:39:32.290Z,38.58
2023-04-17T20:42:02.443Z,35.83
2023-04-17T20:44:34.219Z,38.55
2023-04-17T20:47:04.327Z,39.30
2023-04-17T20:49:34.451Z,37.65
2023-04-17T20:52:07.403Z,37.13
2023-04-17T20:54:37.469Z,34.28
2023-04-17T20:57:07.581Z,33.22
2023-04-17T20:59:37.758Z,33.65
2023-04-17T21:02:07.992Z,34.13
2023-04-17T21:04:38.220Z,36.20
2023-04-17T21:07:11.053Z,36.90
2023-04-17T21:09:41.117Z,31.13
2023-04-17T21:12:11.268Z,35.83
2023-04-17T21:14:43.208Z,36.90
2023-04-17T21:17:13.490Z,33.78
2023-04-17T21:19:43.799Z,30.75
2023-04-17T21:22:16.441Z,32.65
2023-04-17T21:24:46.470Z,32.47
2023-04-17T21:27:16.478Z,33.72
2023-04-17T21:29:46.515Z,29.67
2023-04-17T21:32:16.807Z,29.77
2023-04-17T21:34:46.799Z,29.08
2023-04-17T21:37:19.405Z,33.33
2023-04-17T21:39:49.434Z,27.33
2023-04-17T21:42:19.737Z,33.70
2023-04-17T21:44:49.856Z,29.40
2023-04-17T21:47:20.053Z,31.60
2023-04-17T21:49:50.110Z,31.45
2023-04-17T21:52:22.724Z,33.58
2023-04-17T21:54:52.787Z,31.92
2023-04-17T21:57:22.915Z,35.05
2023-04-17T21:59:53.267Z,33.28
2023-04-17T22:02:23.459Z,31.95
2023-04-17T22:04:53.646Z,34.47
2023-04-17T22:07:26.528Z,33.22
2023-04-17T22:09:56.568Z,32.83
2023-04-17T22:12:26.565Z,28.60
2023-04-17T22:14:56.656Z,31.83
2023-04-17T22:17:26.708Z,35.40
2023-04-17T22:19:57.574Z,33.33
2023-04-17T22:22:30.240Z,30.58
2023-04-17T22:25:00.238Z,31.65
2023-04-17T22:27:31.691Z,30.30
2023-04-17T22:30:01.753Z,33.83
2023-04-17T22:32:31.858Z,30.55
2023-04-17T22:35:01.872Z,33.25
2023-04-17T22:37:34.523Z,33.00
2023-04-17T22:40:04.946Z,28.33
2023-04-17T22:42:34.974Z,31.38
2023-04-17T22:45:05.014Z,31.13
2023-04-17T22:47:35.057Z,32.85
2023-04-17T22:50:05.971Z,36.88
2023-04-17T22:52:38.574Z,33.15
2023-04-17T22:55:09.890Z,31.38
2023-04-17T22:57:39.982Z,37.05
2023-04-17T23:00:12.192Z,30.38
2023-04-17T23:02:42.405Z,31.00
2023-04-17T23:05:12.741Z,30.42
2023-04-17T23:07:45.443Z,29.60
2023-04-17T23:10:15.508Z,33.55
2023-04-17T23:12:45.576Z,34.95
2023-04-17T23:15:15.748Z,31.27
2023-04-17T23:17:46.291Z,32.00
2023-04-17T23:20:16.632Z,28.88
2023-04-17T23:22:49.430Z,29.50
2023-04-17T23:25:19.899Z,32.20
2023-04-17T23:27:49.933Z,33.47
2023-04-17T23:30:20.265Z,32.35
2023-04-17T23:32:51.334Z,31.05
2023-04-17T23:35:21.984Z,26.67
2023-04-17T23:37:54.680Z,33.67
2023-04-17T23:40:25.940Z,30.17
2023-04-17T23:42:56.007Z,34.78
2023-04-17T23:45:26.088Z,30.95
2023-04-17T23:47:56.263Z,31.17
2023-04-17T23:50:26.345Z,30.13
2023-04-17T23:52:58.935Z,35.05
2023-04-17T23:55:29.418Z,28.35
2023-04-17T23:58:00.649Z,30.73
